Time;durP1;ratioP1;P1;durP2;ratioP2;P2;SDS_P1;SDS_P2;PMS_P1;PMS_P2;Temp;Humidity;BMP_temperature;BMP_pressure;BME280_temperature;BME280_humidity;BME280_pressure;Samples;Min_cycle;Max_cycle;Signal;HPM_P1;HPM_P2
2022/08/31 00:05:34;;;;;;;5.50;3.80;;;;;;;16.66;65.98;101852.13;4987006;28;20065;-93
2022/08/31 00:07:59;;;;;;;4.38;3.67;;;;;;;16.64;66.52;101848.66;4978356;28;20169;-94
2022/08/31 00:10:27;;;;;;;5.20;4.00;;;;;;;16.59;66.98;101850.75;4980842;28;20069;-92
2022/08/31 00:12:53;;;;;;;4.78;3.45;;;;;;;16.59;66.75;101841.81;4984671;28;20033;-93
2022/08/31 00:15:20;;;;;;;4.45;3.75;;;;;;;16.61;67.10;101846.16;4990375;28;20035;-95
2022/08/31 00:17:46;;;;;;;4.45;3.65;;;;;;;16.59;67.32;101856.13;4994273;28;20026;-95
2022/08/31 00:20:13;;;;;;;5.15;3.58;;;;;;;16.54;68.00;101852.00;4993525;28;20018;-93
2022/08/31 00:22:39;;;;;;;4.28;3.92;;;;;;;16.48;68.26;101842.50;4992651;28;20029;-94
2022/08/31 00:25:05;;;;;;;3.42;3.22;;;;;;;16.54;68.08;101846.63;4995216;28;20062;-94
2022/08/31 00:27:31;;;;;;;5.03;3.70;;;;;;;16.50;68.35;101851.31;4994267;28;20023;-93
2022/08/31 00:29:56;;;;;;;4.57;3.45;;;;;;;16.50;68.29;101842.38;4993749;28;20038;-95
2022/08/31 00:32:21;;;;;;;5.30;3.33;;;;;;;16.49;68.58;101849.59;4994652;28;20044;-94
2022/08/31 00:34:47;;;;;;;3.65;3.35;;;;;;;16.49;68.56;101849.59;4995316;28;20027;-94
2022/08/31 00:37:12;;;;;;;3.47;3.17;;;;;;;16.49;68.65;101846.03;4978141;28;20047;-95
2022/08/31 00:39:37;;;;;;;6.53;3.40;;;;;;;16.52;68.73;101851.22;4979016;28;20058;-94
2022/08/31 00:42:04;;;;;;;3.38;3.13;;;;;;;16.50;68.69;101845.94;4976928;28;20036;-93
2022/08/31 00:44:29;;;;;;;5.40;3.60;;;;;;;16.49;68.80;101841.53;4973544;28;20448;-94
2022/08/31 00:46:55;;;;;;;4.50;3.20;;;;;;;16.48;68.83;101839.78;4979511;28;20030;-93
2022/08/31 00:49:25;;;;;;;3.45;3.15;;;;;;;16.50;68.98;101843.25;4977301;28;20030;-94
2022/08/31 00:52:08;;;;;;;3.60;3.15;;;;;;;16.52;68.56;101848.53;4981540;28;20037;-94
2022/08/31 00:54:43;;;;;;;4.22;3.40;;;;;;;16.50;68.80;101845.94;4978089;28;20027;-96
2022/08/31 00:57:09;;;;;;;3.40;3.08;;;;;;;16.52;69.01;101837.78;4977947;28;20030;-95
2022/08/31 00:59:36;;;;;;;4.63;3.30;;;;;;;16.57;69.01;101846.44;4979033;28;20111;-92
2022/08/31 01:02:02;;;;;;;3.35;3.05;;;;;;;16.55;69.17;101842.97;4978331;28;20038;-94
2022/08/31 01:04:28;;;;;;;4.22;3.35;;;;;;;16.58;68.78;101840.97;4976774;28;20543;-96
2022/08/31 01:06:53;;;;;;;5.15;3.45;;;;;;;16.61;69.16;101838.09;4975185;28;20102;-94
2022/08/31 01:09:22;;;;;;;5.30;3.25;;;;;;;16.62;69.06;101847.03;4975595;28;20084;-94
2022/08/31 01:11:48;;;;;;;4.95;2.95;;;;;;;16.66;69.13;101843.19;4979228;28;20121;-95
2022/08/31 01:14:13;;;;;;;5.13;3.45;;;;;;;16.63;68.88;101846.06;4977658;28;20430;-95
2022/08/31 01:16:43;;;;;;;3.45;3.15;;;;;;;16.64;68.59;101845.13;4977795;28;20081;-94
2022/08/31 01:19:22;;;;;;;3.40;3.10;;;;;;;16.65;68.96;101850.41;4977586;28;20030;-93
2022/08/31 01:22:01;;;;;;;4.43;3.17;;;;;;;16.62;68.49;101845.19;4978133;28;20460;-95
2022/08/31 01:24:27;;;;;;;4.60;3.40;;;;;;;16.58;68.99;101846.34;4979112;28;20027;-94
2022/08/31 01:26:54;;;;;;;3.72;3.22;;;;;;;16.51;69.19;101836.94;4972705;28;20111;-94
2022/08/31 01:29:19;;;;;;;3.65;3.25;;;;;;;16.47;69.46;101843.44;4978329;28;20049;-95
2022/08/31 01:31:46;;;;;;;4.63;3.30;;;;;;;16.41;69.67;101841.97;4971784;28;20035;-94
2022/08/31 01:34:13;;;;;;;3.70;3.08;;;;;;;16.32;70.14;101839.84;4974839;28;20296;-94
2022/08/31 01:36:41;;;;;;;3.95;3.05;;;;;;;16.29;70.25;101845.38;4975960;28;20034;-93
2022/08/31 01:39:08;;;;;;;4.07;3.20;;;;;;;16.22;70.26;101845.81;4976912;28;20038;-96
2022/08/31 01:41:34;;;;;;;4.72;3.00;;;;;;;16.17;70.92;101851.47;4976205;28;20102;-96
2022/08/31 01:44:00;;;;;;;5.40;3.00;;;;;;;16.11;70.94;101850.03;4976572;28;20035;-93
2022/08/31 01:46:25;;;;;;;4.55;3.40;;;;;;;16.07;70.97;101843.09;4975663;28;20033;-93
2022/08/31 01:48:51;;;;;;;4.47;3.40;;;;;;;16.01;71.53;101840.78;4973871;28;20078;-94
2022/08/31 01:51:19;;;;;;;3.95;3.10;;;;;;;15.98;71.31;101849.00;4976761;28;20191;-94
2022/08/31 01:53:47;;;;;;;5.82;3.35;;;;;;;15.99;71.31;101844.50;4975704;28;20031;-94
2022/08/31 01:56:16;;;;;;;4.88;3.30;;;;;;;15.98;71.39;101849.00;4975826;28;20045;-94
2022/08/31 01:58:41;;;;;;;3.45;3.15;;;;;;;15.89;72.08;101847.72;4974853;28;20061;-95
2022/08/31 02:01:07;;;;;;;3.80;3.13;;;;;;;15.88;71.93;101842.41;4975608;28;20046;-96
2022/08/31 02:03:32;;;;;;;5.43;3.30;;;;;;;15.90;71.95;101846.75;4976741;28;20361;-94
2022/08/31 02:05:57;;;;;;;7.10;3.47;;;;;;;15.84;72.21;101843.53;4973465;28;20034;-94
2022/08/31 02:08:23;;;;;;;3.60;3.30;;;;;;;15.80;72.57;101842.88;4976789;28;20060;-95
2022/08/31 02:10:48;;;;;;;4.00;3.20;;;;;;;15.79;72.59;101843.81;4976299;28;20042;-95
2022/08/31 02:13:13;;;;;;;3.92;3.38;;;;;;;15.75;72.78;101852.97;4977490;28;20038;-95
2022/08/31 02:15:39;;;;;;;3.92;3.10;;;;;;;15.72;73.17;101853.19;4975429;28;20039;-94
2022/08/31 02:18:06;;;;;;;6.18;3.35;;;;;;;15.73;72.61;101852.22;4976423;28;20030;-94
2022/08/31 02:20:31;;;;;;;5.68;3.00;;;;;;;15.80;72.67;101855.41;4956646;28;20030;-95
2022/08/31 02:22:57;;;;;;;3.63;3.33;;;;;;;15.79;72.43;101849.19;4976602;28;20038;-95
2022/08/31 02:25:22;;;;;;;2.90;2.70;;;;;;;15.88;72.39;101856.72;4967979;28;20031;-95
2022/08/31 02:27:48;;;;;;;7.15;3.60;;;;;;;15.87;72.38;101854.13;4976015;28;20026;-95
2022/08/31 02:30:16;;;;;;;3.35;3.00;;;;;;;15.88;72.19;101864.78;4974693;28;20062;-95
2022/08/31 02:32:42;;;;;;;5.00;3.10;;;;;;;15.88;72.29;101863.88;4970896;28;20037;-90
2022/08/31 02:35:07;;;;;;;4.25;2.80;;;;;;;15.86;72.38;101866.69;4972814;28;20447;-93
2022/08/31 02:37:33;;;;;;;4.05;3.00;;;;;;;15.83;72.44;101866.84;4946197;29;20035;-95
2022/08/31 02:39:58;;;;;;;3.50;3.08;;;;;;;15.81;72.52;101865.22;4972938;28;20037;-95
2022/08/31 02:42:23;;;;;;;3.67;2.78;;;;;;;15.78;72.70;101868.94;4973961;28;20043;-95
2022/08/31 02:44:49;;;;;;;3.50;3.20;;;;;;;15.72;72.91;101863.03;4959026;28;20031;-93
2022/08/31 02:47:14;;;;;;;6.65;3.17;;;;;;;15.72;72.88;101868.38;4974826;28;20066;-94
2022/08/31 02:49:39;;;;;;;4.78;3.47;;;;;;;15.67;73.12;101863.28;4975133;28;20068;-92
2022/08/31 02:52:05;;;;;;;6.38;3.35;;;;;;;15.57;73.26;101862.03;4976139;28;20035;-94
2022/08/31 02:54:30;;;;;;;4.15;3.20;;;;;;;15.52;73.66;101866.81;4973790;28;20106;-95
2022/08/31 02:56:55;;;;;;;3.97;3.50;;;;;;;15.47;74.02;101861.69;4971560;28;20031;-95
2022/08/31 02:59:21;;;;;;;3.50;2.92;;;;;;;15.39;73.81;101851.38;4968420;28;20019;-94
2022/08/31 03:01:47;;;;;;;3.78;3.20;;;;;;;15.43;74.06;101868.19;4970939;28;20169;-94
2022/08/31 03:04:12;;;;;;;3.28;3.03;;;;;;;15.33;74.29;101854.38;4958823;28;20026;-94
2022/08/31 03:06:37;;;;;;;6.35;3.50;;;;;;;15.34;74.45;101863.28;4976833;28;20031;-94
2022/08/31 03:09:03;;;;;;;5.05;3.33;;;;;;;15.25;74.79;101870.03;4976931;28;20836;-94
2022/08/31 03:11:29;;;;;;;4.47;3.47;;;;;;;15.21;74.92;101873.81;4974415;28;20103;-94
2022/08/31 03:13:54;;;;;;;4.25;3.42;;;;;;;15.13;75.37;101863.53;4961729;28;20033;-94
2022/08/31 03:16:20;;;;;;;3.17;2.97;;;;;;;15.12;75.26;101864.47;4977228;28;20007;-94
2022/08/31 03:18:47;;;;;;;3.15;2.85;;;;;;;15.11;75.19;101862.75;4973979;28;20567;-94
2022/08/31 03:21:12;;;;;;;3.58;3.28;;;;;;;15.07;75.38;101854.94;4975510;28;20118;-93
2022/08/31 03:23:38;;;;;;;5.20;3.08;;;;;;;15.04;75.56;101857.78;4959969;28;20054;-94
2022/08/31 03:26:04;;;;;;;5.60;3.30;;;;;;;15.02;75.57;101851.66;4980341;28;20471;-94
2022/08/31 03:28:31;;;;;;;4.15;3.47;;;;;;;14.97;75.61;101851.03;4978190;28;20126;-92
2022/08/31 03:30:57;;;;;;;3.92;3.10;;;;;;;14.95;75.82;101851.97;4981517;28;20049;-94
2022/08/31 03:33:22;;;;;;;3.72;3.17;;;;;;;14.93;75.88;101853.00;4979980;28;20030;-94
2022/08/31 03:35:48;;;;;;;4.13;3.70;;;;;;;14.90;76.04;101853.16;4973511;28;20106;-94
2022/08/31 03:38:14;;;;;;;4.95;3.20;;;;;;;14.85;76.09;101856.09;4983506;28;20042;-94
2022/08/31 03:40:40;;;;;;;4.18;3.50;;;;;;;14.86;76.05;101857.81;4981674;28;20031;-93
2022/08/31 03:43:06;;;;;;;4.15;3.00;;;;;;;14.84;76.30;101858.84;4977572;28;20164;-94
2022/08/31 03:45:33;;;;;;;4.65;3.47;;;;;;;14.84;76.37;101859.72;4986321;28;20027;-94
2022/08/31 03:47:59;;;;;;;3.63;3.22;;;;;;;14.84;75.95;101842.75;4981464;28;20551;-95
2022/08/31 03:50:24;;;;;;;3.55;3.20;;;;;;;14.84;75.99;101846.31;4986414;28;20023;-95
2022/08/31 03:52:52;;;;;;;3.75;3.35;;;;;;;14.85;75.97;101845.38;4996549;28;20050;-94
2022/08/31 03:55:18;;;;;;;4.93;3.30;;;;;;;14.87;76.07;101846.13;4997071;28;20019;-94
2022/08/31 03:57:43;;;;;;;3.55;3.22;;;;;;;14.85;75.98;101842.69;4996420;28;20081;-95
2022/08/31 04:00:09;;;;;;;5.13;3.22;;;;;;;14.84;75.47;101854.38;4986398;28;20050;-95
2022/08/31 04:02:38;;;;;;;4.13;3.70;;;;;;;14.79;75.85;101852.84;4980789;28;20042;-95
2022/08/31 04:05:05;;;;;;;3.63;3.25;;;;;;;14.73;75.52;101853.19;4996565;28;20063;-95
2022/08/31 04:07:30;;;;;;;4.18;3.42;;;;;;;14.72;75.84;101867.53;4996161;28;20094;-91
2022/08/31 04:09:55;;;;;;;5.85;3.63;;;;;;;14.65;75.72;101865.16;4982862;28;20059;-94
2022/08/31 04:12:21;;;;;;;4.13;3.13;;;;;;;14.61;75.95;101868.94;4976469;28;20477;-93
2022/08/31 04:14:46;;;;;;;3.38;3.08;;;;;;;14.60;75.73;101866.34;4979088;28;20038;-93
2022/08/31 04:17:12;;;;;;;4.03;3.10;;;;;;;14.58;75.90;101871.78;4965491;28;20030;-94
2022/08/31 04:19:39;;;;;;;5.00;3.35;;;;;;;14.47;76.12;101854.50;4980208;28;20078;-94
2022/08/31 04:22:05;;;;;;;5.05;3.03;;;;;;;14.52;76.03;101871.25;4982974;28;20488;-94
2022/08/31 04:24:31;;;;;;;3.65;3.35;;;;;;;14.44;75.91;101860.88;4960610;29;20031;-93
2022/08/31 04:26:56;;;;;;;4.43;3.33;;;;;;;14.39;75.95;101861.13;4972866;28;20039;-94
2022/08/31 04:29:22;;;;;;;3.85;2.90;;;;;;;14.41;75.64;101864.56;4976522;28;20050;-94
2022/08/31 04:31:47;;;;;;;3.15;2.85;;;;;;;14.43;75.65;101865.38;4976871;28;20488;-94
2022/08/31 04:34:13;;;;;;;4.28;3.15;;;;;;;14.44;75.52;101861.75;4980406;28;20026;-93
2022/08/31 04:36:38;;;;;;;5.18;3.58;;;;;;;14.44;75.14;101864.41;4976620;28;20026;-94
2022/08/31 04:39:05;;;;;;;4.18;3.35;;;;;;;14.46;75.04;101867.00;4979255;28;20090;-93
2022/08/31 04:41:34;;;;;;;4.32;3.20;;;;;;;14.44;74.91;101869.78;4978516;28;20031;-94
2022/08/31 04:44:00;;;;;;;5.53;3.38;;;;;;;14.41;74.91;101880.63;4973829;28;20058;-94
2022/08/31 04:46:28;;;;;;;3.35;2.90;;;;;;;14.40;74.18;101870.88;4963872;28;20029;-93
2022/08/31 04:48:53;;;;;;;3.30;3.00;;;;;;;14.36;74.58;101879.16;4976958;28;20049;-94
2022/08/31 04:51:22;;;;;;;3.40;3.10;;;;;;;14.36;74.60;101879.16;4972707;28;20117;-95
2022/08/31 04:53:48;;;;;;;3.65;2.88;;;;;;;14.30;74.22;101874.09;4976677;28;20022;-93
2022/08/31 04:56:20;;;;;;;4.15;3.00;;;;;;;14.24;74.32;101872.59;4977164;28;20559;-95
2022/08/31 04:58:48;;;;;;;3.72;3.13;;;;;;;14.23;74.00;101886.06;4974918;28;20033;-94
2022/08/31 05:01:16;;;;;;;3.20;2.90;;;;;;;14.20;74.11;101885.25;4973199;28;20161;-94
2022/08/31 05:03:42;;;;;;;3.30;3.00;;;;;;;14.18;74.02;101886.28;4974393;28;20034;-94
2022/08/31 05:06:15;;;;;;;4.15;2.85;;;;;;;14.14;73.93;101874.84;4976073;28;20070;-94
2022/08/31 05:08:41;;;;;;;6.47;3.43;;;;;;;14.10;73.77;101878.63;4976870;28;20035;-93
2022/08/31 05:11:15;;;;;;;3.63;2.85;;;;;;;14.08;73.79;101871.59;4973728;28;20044;-92
2022/08/31 05:13:40;;;;;;;3.78;3.10;;;;;;;14.07;73.66;101878.78;4976354;28;20019;-93
2022/08/31 05:16:08;;;;;;;2.88;2.58;;;;;;;14.10;73.51;101881.31;4976711;28;20461;-94
2022/08/31 05:18:34;;;;;;;5.20;2.50;;;;;;;14.02;73.09;101871.91;4970656;28;20058;-92
2022/08/31 05:21:16;;;;;;;3.65;2.70;;;;;;;14.02;72.87;101879.94;4971815;28;20031;-93
2022/08/31 05:23:44;;;;;;;4.65;2.90;;;;;;;14.02;72.96;101879.94;4976466;28;20027;-94
2022/08/31 05:26:15;;;;;;;5.70;2.70;;;;;;;14.02;72.90;101885.31;4975302;28;20034;-92
2022/08/31 05:28:40;;;;;;;4.40;2.70;;;;;;;14.00;72.52;101889.84;4973937;28;20031;-93
2022/08/31 05:31:06;;;;;;;2.47;2.20;;;;;;;13.97;72.04;101882.84;4975207;28;20042;-93
2022/08/31 05:33:31;;;;;;;3.00;2.40;;;;;;;13.99;71.95;101888.13;4972112;28;20027;-92
2022/08/31 05:36:00;;;;;;;3.38;2.58;;;;;;;13.93;71.59;101898.19;4977260;28;20668;-92
2022/08/31 05:38:25;;;;;;;3.08;2.78;;;;;;;14.00;71.41;101903.22;4977411;28;20082;-94
2022/08/31 05:40:54;;;;;;;4.32;2.92;;;;;;;14.01;70.97;101910.34;4974936;28;20086;-94
2022/08/31 05:43:21;;;;;;;4.90;2.80;;;;;;;14.04;70.65;101902.13;4976043;28;20062;-93
2022/08/31 05:45:46;;;;;;;4.47;2.78;;;;;;;14.06;70.53;101911.84;4973849;28;20030;-89
2022/08/31 05:48:11;;;;;;;3.33;2.40;;;;;;;14.08;70.12;101898.38;4961209;28;20426;-93
2022/08/31 05:50:37;;;;;;;4.60;2.70;;;;;;;14.06;69.84;101886.88;4974270;28;20039;-92
2022/08/31 05:53:02;;;;;;;3.33;2.22;;;;;;;14.12;69.52;101895.47;4973152;28;20034;-91
2022/08/31 05:55:29;;;;;;;3.70;2.60;;;;;;;14.23;69.50;101897.63;4958330;28;20551;-92
2022/08/31 05:57:54;;;;;;;6.43;2.40;;;;;;;14.35;68.45;101899.72;4971900;28;20336;-92
2022/08/31 06:00:20;;;;;;;4.68;2.42;;;;;;;14.45;68.29;101898.28;4966463;28;20027;-90
2022/08/31 06:02:45;;;;;;;6.25;2.35;;;;;;;14.64;67.55;101902.75;4966519;28;20031;-90
2022/08/31 06:05:11;;;;;;;3.42;2.33;;;;;;;14.75;67.10;101902.19;4974233;28;20058;-92
2022/08/31 06:07:36;;;;;;;2.92;2.63;;;;;;;14.84;66.07;101907.97;4972394;28;20065;-87
2022/08/31 06:10:02;;;;;;;3.78;2.38;;;;;;;14.85;65.94;101909.69;4970492;28;20042;-94
2022/08/31 06:12:30;;;;;;;2.85;2.25;;;;;;;14.85;65.83;101911.50;4976578;28;20019;-92
2022/08/31 06:14:56;;;;;;;3.20;2.38;;;;;;;14.92;65.63;101910.22;4972059;28;20114;-93
2022/08/31 06:17:23;;;;;;;6.70;3.75;;;;;;;15.05;65.85;101908.66;4973149;28;20062;-90
2022/08/31 06:19:50;;;;;;;4.22;2.45;;;;;;;15.09;65.18;101920.06;4973725;28;20034;-92
2022/08/31 06:22:16;;;;;;;5.85;2.40;;;;;;;15.16;64.74;101913.44;4973931;28;20031;-93
2022/08/31 06:24:41;;;;;;;3.20;2.03;;;;;;;15.05;64.28;101892.56;4971369;28;20041;-93
2022/08/31 06:27:09;;;;;;;3.70;2.47;;;;;;;15.32;64.24;101924.22;4972467;28;20699;-94
2022/08/31 06:29:34;;;;;;;3.00;2.42;;;;;;;15.41;63.81;101919.22;4971945;28;20030;-93
2022/08/31 06:31:59;;;;;;;3.45;2.20;;;;;;;15.49;63.70;101923.31;4971293;28;20023;-92
2022/08/31 06:34:27;;;;;;;2.65;2.33;;;;;;;15.58;62.82;101926.34;4969800;28;20030;-89
2022/08/31 06:36:53;;;;;;;3.58;2.20;;;;;;;15.78;62.66;101925.28;4969888;28;20388;-90
2022/08/31 06:39:18;;;;;;;7.15;2.63;;;;;;;15.94;62.13;101933.38;4975370;28;20072;-93
2022/08/31 06:41:43;;;;;;;3.63;2.53;;;;;;;16.08;61.52;101922.69;4971895;28;20023;-91
2022/08/31 06:44:11;;;;;;;3.33;2.08;;;;;;;16.15;61.62;101924.09;4965962;28;20027;-91
2022/08/31 06:46:38;;;;;;;4.57;2.28;;;;;;;16.29;61.05;101922.44;4967982;28;20023;-93
2022/08/31 06:49:05;;;;;;;3.47;2.10;;;;;;;16.55;61.13;101935.19;4973980;28;20150;-91
2022/08/31 06:51:35;;;;;;;4.25;2.10;;;;;;;16.75;60.12;101930.53;4969692;28;20413;-92
2022/08/31 06:54:02;;;;;;;3.92;2.30;;;;;;;16.98;59.70;101935.38;4973561;28;20031;-94
2022/08/31 06:56:27;;;;;;;5.57;3.90;;;;;;;17.12;58.76;101926.47;4978420;28;20035;-94
2022/08/31 06:58:53;;;;;;;9.63;4.78;;;;;;;17.25;57.97;101930.13;4986177;28;20030;-94
2022/08/31 07:01:21;;;;;;;5.25;2.60;;;;;;;17.29;57.59;101939.75;4984543;28;20077;-96
2022/08/31 07:03:49;;;;;;;3.72;2.22;;;;;;;17.29;57.01;101938.88;4985950;28;20062;-95
2022/08/31 07:06:21;;;;;;;3.80;2.10;;;;;;;17.43;57.73;101939.78;4983985;28;20034;-94
2022/08/31 07:08:53;;;;;;;3.15;2.20;;;;;;;17.70;56.76;101936.31;4985841;28;20035;-91
2022/08/31 07:11:22;;;;;;;2.83;2.13;;;;;;;17.61;56.42;101947.66;4980213;28;20041;-94
2022/08/31 07:13:50;;;;;;;3.70;2.20;;;;;;;17.76;55.53;101943.16;4970594;28;20043;-93
2022/08/31 07:16:19;;;;;;;4.22;2.20;;;;;;;17.95;55.42;101946.41;4980549;28;20029;-91
2022/08/31 07:18:45;;;;;;;3.47;2.30;;;;;;;18.09;54.34;101949.06;4983461;28;20107;-93
2022/08/31 07:21:21;;;;;;;2.60;2.20;;;;;;;18.02;54.88;101950.44;4990762;28;20031;-94
2022/08/31 07:23:48;;;;;;;3.25;2.00;;;;;;;18.11;54.07;101951.66;4996748;28;20452;-93
2022/08/31 07:26:18;;;;;;;2.70;1.88;;;;;;;18.07;54.80;101953.69;4992550;28;20037;-95
2022/08/31 07:28:44;;;;;;;3.53;2.00;;;;;;;18.08;54.39;101952.72;4991508;28;20038;-92
2022/08/31 07:31:12;;;;;;;2.42;1.90;;;;;;;18.22;53.96;101954.50;4994271;28;20180;-93
2022/08/31 07:33:37;;;;;;;2.83;1.92;;;;;;;18.40;53.09;101947.06;4993131;28;20035;-95
2022/08/31 07:36:14;;;;;;;3.60;2.22;;;;;;;18.52;53.33;101948.06;4979625;28;20035;-92
2022/08/31 07:44:00;;;;;;;2.60;2.00;;;;;;;18.30;53.73;101954.88;4975801;28;20058;-91
2022/08/31 07:46:30;;;;;;;5.85;3.80;;;;;;;18.69;53.75;101953.22;4978078;28;20106;-93
2022/08/31 07:48:57;;;;;;;4.43;2.78;;;;;;;18.90;52.39;101948.22;4960947;28;20038;-93
2022/08/31 07:51:23;;;;;;;3.65;2.00;;;;;;;18.77;52.56;101953.59;4978588;28;20086;-93
2022/08/31 07:53:50;;;;;;;3.10;2.28;;;;;;;19.18;52.01;101949.84;4980727;28;20097;-93
2022/08/31 07:56:16;;;;;;;2.33;2.03;;;;;;;19.84;50.20;101940.66;4978930;28;20027;-95
2022/08/31 07:58:42;;;;;;;2.45;2.10;;;;;;;20.44;48.85;101949.78;4969591;28;20027;-94
2022/08/31 08:01:07;;;;;;;3.65;2.17;;;;;;;21.01;46.83;101953.59;4975711;28;20047;-94
2022/08/31 08:03:33;;;;;;;3.67;2.05;;;;;;;21.15;47.43;101950.66;4972563;28;20098;-92
2022/08/31 08:05:58;;;;;;;4.82;2.17;;;;;;;21.21;45.95;101946.63;4971498;28;20035;-91
2022/08/31 08:08:24;;;;;;;4.20;2.40;;;;;;;21.76;45.93;101962.09;4969280;28;20027;-91
2022/08/31 08:10:49;;;;;;;4.95;2.00;;;;;;;21.83;44.29;101952.50;4972743;28;20544;-93
2022/08/31 08:13:18;;;;;;;3.15;2.05;;;;;;;21.82;45.48;101969.75;4959390;28;20053;-94
2022/08/31 08:15:44;;;;;;;3.55;2.17;;;;;;;21.94;44.35;101962.44;4977866;28;20034;-92
2022/08/31 08:18:11;;;;;;;3.75;2.17;;;;;;;22.54;44.38;101966.56;4975170;28;20011;-94
2022/08/31 08:20:37;;;;;;;3.47;2.10;;;;;;;22.94;43.13;101965.91;4971672;28;20043;-93
2022/08/31 08:23:06;;;;;;;5.07;2.40;;;;;;;23.42;42.00;101969.97;4973751;28;20105;-92
2022/08/31 08:25:35;;;;;;;3.88;2.35;;;;;;;23.66;41.29;101973.28;4973721;28;20478;-92
2022/08/31 08:28:00;;;;;;;9.75;3.10;;;;;;;23.51;41.08;101974.59;4971128;28;20481;-90
2022/08/31 08:30:26;;;;;;;4.78;2.17;;;;;;;23.86;41.17;101980.47;4977170;28;20107;-95
2022/08/31 08:32:51;;;;;;;6.75;2.10;;;;;;;24.45;40.06;101970.66;4977929;28;20038;-95
2022/08/31 08:35:16;;;;;;;4.57;2.10;;;;;;;24.82;38.82;101962.66;4976371;28;20444;-94
2022/08/31 08:37:46;;;;;;;6.60;2.50;;;;;;;25.20;38.11;101970.97;4974665;28;20038;-95
2022/08/31 08:40:22;;;;;;;5.82;2.58;;;;;;;25.19;38.63;101978.28;4974370;28;20023;-92
2022/08/31 08:42:47;;;;;;;6.68;2.40;;;;;;;25.31;37.36;101974.38;4971490;28;20050;-93
2022/08/31 08:45:13;;;;;;;5.10;2.28;;;;;;;25.62;36.76;101985.03;4974161;28;20036;-92
2022/08/31 08:47:38;;;;;;;4.57;2.05;;;;;;;25.74;37.24;101978.41;4976184;28;20606;-93
2022/08/31 08:50:06;;;;;;;4.10;2.25;;;;;;;25.75;36.19;101974.69;4972667;28;20031;-91
2022/08/31 08:52:40;;;;;;;3.10;2.28;;;;;;;26.01;36.51;101977.59;4975670;28;20030;-92
2022/08/31 08:55:14;;;;;;;5.68;2.00;;;;;;;26.39;36.48;101983.84;4957315;28;20025;-93
2022/08/31 08:57:42;;;;;;;5.40;2.20;;;;;;;26.74;36.51;101982.16;4971951;28;20082;-93
2022/08/31 09:00:19;;;;;;;3.28;2.20;;;;;;;26.76;35.20;101970.09;4971261;28;20062;-92
2022/08/31 09:03:00;;;;;;;3.58;2.35;;;;;;;26.61;34.80;101979.84;4976624;28;20491;-93
2022/08/31 09:05:47;;;;;;;4.13;2.35;;;;;;;26.80;35.42;101974.22;4976767;28;20083;-93
2022/08/31 09:08:44;;;;;;;5.18;2.70;;;;;;;27.83;35.23;101973.59;4969620;28;20039;-93
2022/08/31 09:11:53;;;;;;;3.58;2.35;;;;;;;28.38;33.93;101970.41;4958772;28;20073;-91
2022/08/31 09:14:35;;;;;;;2.97;2.22;;;;;;;28.35;33.39;101970.72;4959911;28;20023;-94
2022/08/31 09:17:36;;;;;;;5.22;2.28;;;;;;;27.69;34.05;101972.31;4976575;28;20481;-93
2022/08/31 09:20:04;;;;;;;4.00;2.38;;;;;;;26.02;36.14;101981.19;4974977;28;20385;-94
2022/08/31 09:22:33;;;;;;;5.03;3.00;;;;;;;24.87;38.18;101969.53;4975939;28;20339;-94
2022/08/31 09:24:59;;;;;;;2.97;2.70;;;;;;;24.10;40.30;101974.72;4961706;28;20389;-93
2022/08/31 09:27:44;;;;;;;3.25;2.08;;;;;;;23.96;41.12;101977.81;4976496;28;20023;-95
2022/08/31 09:30:16;;;;;;;5.22;2.40;;;;;;;24.34;40.53;101978.94;4970506;28;20070;-94
2022/08/31 09:32:53;;;;;;;5.00;2.83;;;;;;;23.87;41.46;101978.66;4976102;28;20045;-94
2022/08/31 09:35:40;;;;;;;5.05;3.08;;;;;;;23.54;42.44;101977.91;4955205;28;20059;-93
2022/08/31 09:38:09;;;;;;;5.38;2.88;;;;;;;25.24;38.96;101972.38;4956452;29;20031;-94
2022/08/31 09:40:46;;;;;;;7.05;3.05;;;;;;;27.03;36.12;101973.72;4971954;28;20027;-94
2022/08/31 09:43:33;;;;;;;5.60;3.53;;;;;;;28.56;34.21;101973.88;4956543;28;20047;-95
2022/08/31 09:46:20;;;;;;;4.75;2.90;;;;;;;28.74;32.56;101974.59;4973168;28;20038;-91
2022/08/31 09:48:51;;;;;;;3.97;3.05;;;;;;;29.60;31.66;101973.22;4963645;28;20122;-95
2022/08/31 09:51:27;;;;;;;4.40;3.03;;;;;;;29.91;31.21;101980.63;4974123;28;20118;-94
2022/08/31 09:56:54;;;;;;;4.00;3.33;;;;;;;28.51;33.42;101973.53;4969934;28;20314;-95
2022/08/31 09:59:43;;;;;;;4.40;3.15;;;;;;;28.72;32.69;101976.66;4976367;28;20121;-94
2022/08/31 10:02:21;;;;;;;4.93;3.15;;;;;;;29.11;32.09;101962.28;4954239;29;20027;-95
2022/08/31 10:04:51;;;;;;;5.30;3.38;;;;;;;29.81;31.33;101960.78;4971735;28;20038;-90
2022/08/31 10:07:23;;;;;;;4.35;3.38;;;;;;;30.17;30.50;101966.63;4973817;28;20156;-92
2022/08/31 10:09:55;;;;;;;3.78;2.92;;;;;;;30.91;30.24;101959.63;4973659;28;20089;-92
2022/08/31 10:12:34;;;;;;;4.47;3.10;;;;;;;31.44;29.60;101957.78;4971980;28;20031;-95
2022/08/31 10:15:08;;;;;;;4.05;2.85;;;;;;;31.37;29.06;101959.56;4970977;28;20034;-95
2022/08/31 10:17:44;;;;;;;4.20;2.85;;;;;;;31.91;28.58;101958.47;4965687;28;20031;-92
2022/08/31 10:20:20;;;;;;;8.05;3.38;;;;;;;32.16;27.84;101953.47;4968041;28;20038;-92
2022/08/31 10:22:50;;;;;;;5.00;2.85;;;;;;;32.80;26.93;101959.03;4973855;28;20023;-93
2022/08/31 10:25:35;;;;;;;6.05;4.45;;;;;;;33.31;26.21;101960.75;4975391;28;20054;-90
2022/08/31 10:28:14;;;;;;;4.30;3.28;;;;;;;32.91;27.10;101964.03;4974320;28;20034;-94
2022/08/31 10:30:58;;;;;;;5.15;3.45;;;;;;;32.72;27.09;101960.03;4974169;28;20026;-90
2022/08/31 10:35:01;;;;;;;3.97;3.35;;;;;;;32.67;26.66;101951.50;4974104;28;20456;-92
2022/08/31 10:36:19;;;;;;;5.68;3.47;;;;;;;32.77;26.89;101947.56;4971804;28;20053;-92
2022/08/31 10:38:47;;;;;;;4.40;3.00;;;;;;;32.71;27.03;101944.53;4973702;28;20114;-89
2022/08/31 10:41:16;;;;;;;8.52;3.30;;;;;;;32.66;26.80;101952.56;4975751;28;20045;-94
2022/08/31 10:44:15;;;;;;;5.15;3.22;;;;;;;32.94;27.26;101949.00;4975427;28;20039;-94
2022/08/31 10:46:42;;;;;;;3.78;3.00;;;;;;;33.13;26.90;101944.72;4974975;28;20027;-93
2022/08/31 10:49:07;;;;;;;4.68;3.00;;;;;;;34.18;25.12;101944.50;4973425;28;20034;-94
2022/08/31 10:52:02;;;;;;;4.03;3.10;;;;;;;34.77;25.87;101958.66;4974266;28;20058;-92
2022/08/31 10:55:12;;;;;;;6.95;3.50;;;;;;;35.02;25.04;101945.94;4978973;28;20316;-89
2022/08/31 10:58:16;;;;;;;5.05;3.20;;;;;;;35.46;24.83;101944.41;4953960;29;20062;-91
2022/08/31 11:00:55;;;;;;;4.35;3.53;;;;;;;34.45;24.53;101952.88;4986926;28;20039;-92
2022/08/31 11:03:56;;;;;;;6.85;3.58;;;;;;;33.88;25.93;101946.69;4993215;28;20014;-91
2022/08/31 11:06:38;;;;;;;6.90;3.40;;;;;;;33.18;26.41;101940.28;4984874;28;20031;-94
2022/08/31 11:09:03;;;;;;;6.05;3.17;;;;;;;32.97;26.35;101945.84;4987328;28;20019;-90
2022/08/31 11:11:44;;;;;;;7.50;3.30;;;;;;;33.83;25.68;101948.38;4993138;28;20467;-90
2022/08/31 11:14:42;;;;;;;5.80;3.65;;;;;;;33.32;26.39;101945.91;4992225;28;20783;-94
2022/08/31 11:17:08;;;;;;;5.45;3.40;;;;;;;32.26;26.63;101948.50;4976051;28;20072;-89
2022/08/31 11:19:55;;;;;;;4.50;3.80;;;;;;;30.15;29.71;101963.22;4978093;28;20491;-92
2022/08/31 11:22:35;;;;;;;4.72;3.50;;;;;;;29.65;31.16;101956.22;4972975;28;20314;-90
2022/08/31 11:25:13;;;;;;;6.45;3.65;;;;;;;29.46;31.50;101946.44;4973529;28;20022;-90
2022/08/31 11:27:53;;;;;;;4.43;3.10;;;;;;;29.60;32.22;101944.91;4973222;28;20054;-92
2022/08/31 11:30:27;;;;;;;5.95;3.40;;;;;;;30.12;30.75;101939.69;4955670;28;20036;-90
2022/08/31 11:32:59;;;;;;;6.13;3.30;;;;;;;29.65;31.44;101939.75;4962454;28;20037;-91
2022/08/31 11:36:08;;;;;;;7.25;3.35;;;;;;;30.16;31.09;101946.56;4952452;28;20022;-93
2022/08/31 11:38:53;;;;;;;5.15;3.35;;;;;;;29.51;31.80;101931.19;4967954;28;20038;-91
2022/08/31 11:41:32;;;;;;;6.00;3.65;;;;;;;28.57;33.33;101940.00;4968920;28;20050;-90
2022/08/31 11:44:01;;;;;;;7.47;3.33;;;;;;;28.23;33.52;101931.84;4971942;28;20051;-93
2022/08/31 11:46:26;;;;;;;5.30;3.10;;;;;;;28.04;34.47;101927.53;4961616;28;20027;-93
2022/08/31 11:48:54;;;;;;;4.68;3.20;;;;;;;28.27;35.17;101923.13;4968431;28;20121;-92